createdAt,value
2022-11-24T00:00:17.670Z,7.40
2022-11-24T00:03:05.335Z,7.13
2022-11-24T00:05:52.988Z,6.57
2022-11-24T00:08:40.578Z,6.67
2022-11-24T00:11:28.123Z,6.88
2022-11-24T00:14:15.699Z,6.67
2022-11-24T00:17:03.429Z,6.60
2022-11-24T00:19:51.087Z,6.19
2022-11-24T00:22:38.682Z,6.24
2022-11-24T00:25:26.225Z,6.65
2022-11-24T00:28:13.806Z,6.86
2022-11-24T00:31:01.378Z,6.82
2022-11-24T00:33:48.998Z,6.78
2022-11-24T00:36:36.579Z,7.16
2022-11-24T00:39:24.157Z,7.57
2022-11-24T00:42:11.711Z,7.35
2022-11-24T00:44:59.277Z,7.09
2022-11-24T00:47:46.871Z,7.62
2022-11-24T00:50:34.461Z,7.68
2022-11-24T00:53:22.015Z,7.68
2022-11-24T00:56:09.580Z,6.74
2022-11-24T00:58:57.126Z,6.38
2022-11-24T01:01:44.815Z,6.90
2022-11-24T01:04:32.721Z,6.48
2022-11-24T01:07:20.475Z,7.00
2022-11-24T01:10:08.026Z,6.79
2022-11-24T01:12:55.601Z,6.65
2022-11-24T01:15:43.186Z,6.76
2022-11-24T01:18:30.774Z,6.90
2022-11-24T01:21:18.338Z,6.67
2022-11-24T01:24:05.899Z,6.78
2022-11-24T01:26:53.465Z,6.96
2022-11-24T01:29:41.237Z,6.92
2022-11-24T01:32:28.788Z,6.95
2022-11-24T01:35:16.461Z,6.76
2022-11-24T01:38:04.014Z,6.85
2022-11-24T01:40:51.582Z,6.89
2022-11-24T01:43:39.149Z,6.75
2022-11-24T01:46:26.757Z,6.81
2022-11-24T01:49:14.356Z,7.08
2022-11-24T01:52:01.918Z,7.02
2022-11-24T01:54:49.455Z,6.79
2022-11-24T01:57:37.018Z,7.30
2022-11-24T02:00:24.574Z,7.37
2022-11-24T02:03:12.160Z,7.44
2022-11-24T02:05:59.690Z,7.42
2022-11-24T02:08:47.253Z,7.31
2022-11-24T02:11:34.818Z,7.05
2022-11-24T02:14:22.374Z,7.06
2022-11-24T02:17:09.914Z,7.15
2022-11-24T02:19:57.498Z,6.92
2022-11-24T02:22:45.065Z,6.92
2022-11-24T02:25:32.628Z,6.85
2022-11-24T02:28:20.178Z,6.70
2022-11-24T02:31:07.769Z,7.01
2022-11-24T02:33:55.398Z,7.25
2022-11-24T02:36:42.984Z,7.13
2022-11-24T02:39:30.568Z,7.22
2022-11-24T02:42:18.126Z,7.41
2022-11-24T02:45:05.709Z,7.13
2022-11-24T02:47:53.254Z,6.75
2022-11-24T02:50:40.814Z,7.12
2022-11-24T02:53:28.371Z,7.04
2022-11-24T02:56:15.914Z,7.47
2022-11-24T02:59:03.509Z,7.24
2022-11-24T03:01:51.193Z,7.24
2022-11-24T03:04:38.793Z,7.21
2022-11-24T03:07:26.402Z,7.23
2022-11-24T03:10:14.011Z,7.29
2022-11-24T03:13:01.584Z,6.82
2022-11-24T03:15:49.278Z,6.68
2022-11-24T03:18:36.898Z,6.48
2022-11-24T03:21:24.502Z,6.77
2022-11-24T03:24:12.086Z,6.05
2022-11-24T03:26:59.662Z,6.24
2022-11-24T03:29:47.209Z,5.98
2022-11-24T03:32:34.818Z,6.37
2022-11-24T03:35:24.399Z,6.62
2022-11-24T03:38:11.984Z,6.53
2022-11-24T03:40:59.546Z,6.61
2022-11-24T03:43:47.229Z,6.21
2022-11-24T03:46:36.949Z,6.03
2022-11-24T03:49:24.608Z,6.38
2022-11-24T03:52:12.161Z,6.30
2022-11-24T03:54:59.734Z,6.17
2022-11-24T03:57:47.307Z,6.52
2022-11-24T04:00:34.879Z,6.34
2022-11-24T04:03:22.446Z,6.31
2022-11-24T04:06:10.014Z,6.46
2022-11-24T04:08:57.572Z,6.73
2022-11-24T04:11:45.156Z,6.59
2022-11-24T04:14:52.712Z,6.14
2022-11-24T04:17:40.393Z,6.53
2022-11-24T04:20:28.027Z,6.79
2022-11-24T04:23:15.612Z,6.70
2022-11-24T04:26:03.174Z,6.85
2022-11-24T04:28:50.775Z,6.49
2022-11-24T04:31:38.384Z,6.67
2022-11-24T04:34:26.024Z,7.06
2022-11-24T04:37:13.601Z,7.05
2022-11-24T04:40:01.216Z,6.85
2022-11-24T04:42:48.834Z,6.74
2022-11-24T04:45:36.419Z,6.78
2022-11-24T04:48:23.989Z,7.06
2022-11-24T04:51:11.686Z,6.83
2022-11-24T04:53:59.263Z,6.52
2022-11-24T04:56:46.840Z,6.79
2022-11-24T04:59:34.411Z,6.81
2022-11-24T05:02:21.993Z,6.91
2022-11-24T05:05:09.582Z,6.93
2022-11-24T05:07:57.206Z,6.87
2022-11-24T05:10:44.776Z,7.00
2022-11-24T05:13:32.344Z,6.30
2022-11-24T05:16:19.934Z,6.24
2022-11-24T05:19:07.749Z,6.16
2022-11-24T05:21:55.284Z,5.81
2022-11-24T05:24:43.081Z,6.19
2022-11-24T05:27:30.649Z,6.21
2022-11-24T05:30:18.188Z,6.28
2022-11-24T05:33:05.730Z,6.15
2022-11-24T05:35:53.296Z,6.30
2022-11-24T05:38:40.865Z,6.20
2022-11-24T05:41:28.414Z,6.29
2022-11-24T05:44:15.976Z,6.23
2022-11-24T05:47:03.584Z,6.30
2022-11-24T05:49:51.170Z,6.55
2022-11-24T05:52:38.729Z,6.67
2022-11-24T05:55:26.262Z,6.65
2022-11-24T05:58:13.846Z,7.02
2022-11-24T06:01:01.408Z,7.23
2022-11-24T06:03:48.957Z,7.03
2022-11-24T06:06:36.524Z,6.90
2022-11-24T06:09:24.100Z,7.03
2022-11-24T06:12:11.674Z,7.04
2022-11-24T06:14:59.298Z,6.92
2022-11-24T06:17:46.874Z,6.26
2022-11-24T06:20:34.426Z,6.11
2022-11-24T06:23:21.973Z,6.19
2022-11-24T06:26:09.542Z,6.53
2022-11-24T06:28:57.096Z,6.40
2022-11-24T06:31:44.757Z,6.38
2022-11-24T06:34:32.757Z,6.24
2022-11-24T06:37:20.582Z,6.42
2022-11-24T06:40:08.120Z,6.65
2022-11-24T06:42:55.991Z,6.42
2022-11-24T06:45:43.690Z,6.54
2022-11-24T06:48:31.253Z,6.79
2022-11-24T06:51:18.828Z,6.21
2022-11-24T06:54:06.406Z,6.69
2022-11-24T06:56:53.974Z,6.73
2022-11-24T06:59:41.549Z,6.96
2022-11-24T07:02:29.106Z,6.91
2022-11-24T07:05:16.699Z,6.46
2022-11-24T07:08:04.318Z,6.43
2022-11-24T07:10:51.934Z,6.53
2022-11-24T07:13:39.494Z,6.28
2022-11-24T07:16:27.192Z,6.63
2022-11-24T07:19:15.602Z,6.88
2022-11-24T07:22:05.553Z,6.82
2022-11-24T07:24:53.127Z,6.54
2022-11-24T07:27:40.690Z,6.91
2022-11-24T07:30:28.329Z,6.99
2022-11-24T07:33:16.007Z,6.94
2022-11-24T07:36:03.593Z,6.94
2022-11-24T07:38:51.167Z,6.49
2022-11-24T07:41:38.727Z,6.25
2022-11-24T07:44:26.316Z,5.84
2022-11-24T07:47:13.863Z,5.94
2022-11-24T07:50:01.419Z,5.89
2022-11-24T07:52:48.986Z,6.09
2022-11-24T07:55:36.562Z,6.18
2022-11-24T07:58:27.678Z,5.93
2022-11-24T08:01:19.555Z,5.93
2022-11-24T08:04:07.229Z,6.29
2022-11-24T08:06:54.834Z,5.74
2022-11-24T08:09:42.391Z,5.98
2022-11-24T08:12:29.970Z,6.16
2022-11-24T08:15:17.512Z,5.98
2022-11-24T08:18:05.107Z,6.01
2022-11-24T08:20:52.684Z,6.30
2022-11-24T08:23:40.272Z,6.32
2022-11-24T08:26:27.834Z,6.95
2022-11-24T08:29:15.403Z,6.74
2022-11-24T08:32:03.026Z,7.31
2022-11-24T08:34:52.075Z,7.15
2022-11-24T08:37:39.690Z,7.12
2022-11-24T08:40:27.267Z,7.21
2022-11-24T08:43:14.838Z,6.95
2022-11-24T08:46:02.465Z,7.22
2022-11-24T08:48:50.181Z,6.81
2022-11-24T08:51:37.821Z,7.28
2022-11-24T08:54:25.366Z,7.38
2022-11-24T08:57:16.025Z,7.05
2022-11-24T09:00:07.836Z,7.21
2022-11-24T09:02:55.494Z,7.40
2022-11-24T09:05:51.817Z,7.01
2022-11-24T09:08:40.177Z,6.82
2022-11-24T09:11:27.762Z,6.92
2022-11-24T09:14:15.349Z,6.46
2022-11-24T09:17:03.014Z,7.06
2022-11-24T09:19:50.671Z,7.31
2022-11-24T09:22:38.221Z,7.18
2022-11-24T09:25:25.812Z,6.90
2022-11-24T09:28:13.367Z,6.98
2022-11-24T09:31:01.013Z,7.09
2022-11-24T09:33:48.607Z,7.41
2022-11-24T09:36:36.202Z,7.73
2022-11-24T09:39:23.792Z,7.84
2022-11-24T09:42:11.391Z,7.62
2022-11-24T09:44:58.943Z,7.58
2022-11-24T09:47:46.526Z,7.27
2022-11-24T09:50:34.076Z,7.10
2022-11-24T09:53:21.655Z,7.53
2022-11-24T09:56:09.248Z,7.40
2022-11-24T09:58:56.847Z,7.30
2022-11-24T10:01:44.436Z,7.21
2022-11-24T10:04:32.082Z,7.11
2022-11-24T10:07:21.370Z,7.41
2022-11-24T10:10:08.994Z,7.27
2022-11-24T10:12:56.562Z,7.20
2022-11-24T10:15:44.180Z,7.09
2022-11-24T10:18:31.773Z,7.56
2022-11-24T10:21:19.379Z,7.47
2022-11-24T10:24:06.954Z,7.87
2022-11-24T10:26:54.560Z,8.37
2022-11-24T10:29:42.133Z,8.45
2022-11-24T10:32:29.713Z,8.82
2022-11-24T10:35:17.271Z,8.94
2022-11-24T10:38:04.838Z,8.52
2022-11-24T10:40:57.436Z,9.29
2022-11-24T10:43:45.223Z,9.25
2022-11-24T10:46:37.939Z,9.16
2022-11-24T10:49:26.958Z,9.49
2022-11-24T10:52:14.527Z,9.61
2022-11-24T10:55:02.087Z,9.84
2022-11-24T10:57:49.687Z,9.82
2022-11-24T11:00:37.259Z,9.33
2022-11-24T11:03:24.833Z,9.08
2022-11-24T11:06:12.398Z,9.11
2022-11-24T11:09:00.025Z,9.52
2022-11-24T11:11:47.593Z,9.49
2022-11-24T11:14:35.163Z,9.27
2022-11-24T11:17:22.747Z,9.22
2022-11-24T11:20:10.336Z,9.84
2022-11-24T11:22:57.914Z,9.85
2022-11-24T11:25:45.491Z,9.60
2022-11-24T11:28:33.041Z,9.79
2022-11-24T11:31:22.175Z,9.49
2022-11-24T11:34:16.669Z,9.37
2022-11-24T11:37:08.371Z,9.73
2022-11-24T11:39:55.982Z,9.73
2022-11-24T11:43:01.871Z,9.88
2022-11-24T11:45:50.558Z,9.88
2022-11-24T11:48:43.066Z,9.79
2022-11-24T11:51:31.446Z,9.89
2022-11-24T11:54:19.234Z,9.87
2022-11-24T11:57:08.819Z,9.69
2022-11-24T11:59:56.393Z,9.68
2022-11-24T12:02:47.286Z,9.71
2022-11-24T12:05:39.186Z,10.03
2022-11-24T12:08:26.786Z,10.26
2022-11-24T12:11:14.326Z,10.37
2022-11-24T12:14:01.916Z,9.97
2022-11-24T12:16:49.459Z,9.59
2022-11-24T12:19:37.189Z,9.69
2022-11-24T12:22:24.940Z,9.80
2022-11-24T12:25:12.538Z,9.62
2022-11-24T12:28:00.087Z,10.31
2022-11-24T12:30:47.675Z,9.87
2022-11-24T12:33:35.244Z,9.79
2022-11-24T12:36:22.814Z,10.15
2022-11-24T12:39:10.390Z,10.45
2022-11-24T12:41:58.089Z,10.32
2022-11-24T12:44:45.635Z,10.34
2022-11-24T12:47:33.303Z,10.38
2022-11-24T12:50:20.889Z,10.47
2022-11-24T12:53:08.468Z,10.78
2022-11-24T12:55:56.029Z,11.08
2022-11-24T12:58:43.631Z,10.95
2022-11-24T13:01:31.275Z,11.60
2022-11-24T13:04:19.009Z,11.63
2022-11-24T13:07:06.608Z,11.18
2022-11-24T13:09:54.152Z,11.13
2022-11-24T13:12:41.718Z,11.62
2022-11-24T13:15:45.527Z,11.65
2022-11-24T13:18:33.798Z,12.03
2022-11-24T13:21:21.389Z,12.09
2022-11-24T13:24:08.977Z,12.45
2022-11-24T13:26:56.522Z,12.76
2022-11-24T13:29:44.124Z,12.53
2022-11-24T13:32:31.665Z,12.86
2022-11-24T13:35:19.224Z,13.23
2022-11-24T13:38:06.775Z,12.65
2022-11-24T13:41:13.360Z,12.56
2022-11-24T13:44:01.863Z,12.25
2022-11-24T13:46:49.494Z,12.75
2022-11-24T13:49:37.126Z,12.59
2022-11-24T13:52:24.718Z,12.09
2022-11-24T13:55:12.303Z,11.90
2022-11-24T13:57:59.883Z,11.52
2022-11-24T14:00:47.474Z,11.99
2022-11-24T14:03:35.133Z,11.47
2022-11-24T14:06:22.784Z,11.74
2022-11-24T14:09:10.369Z,12.19
2022-11-24T14:11:57.957Z,12.43
2022-11-24T14:14:45.538Z,12.79
2022-11-24T14:17:33.096Z,12.79
2022-11-24T14:20:20.659Z,12.98
2022-11-24T14:23:08.191Z,13.18
2022-11-24T14:25:55.791Z,13.25
2022-11-24T14:28:43.424Z,13.35
2022-11-24T14:31:31.180Z,13.28
2022-11-24T14:34:20.722Z,13.55
2022-11-24T14:37:08.290Z,13.55
2022-11-24T14:39:56.862Z,13.65
2022-11-24T14:42:44.434Z,13.74
2022-11-24T14:45:31.982Z,14.04
2022-11-24T14:48:19.568Z,14.26
2022-11-24T14:51:07.135Z,14.42
2022-11-24T14:53:54.707Z,14.60
2022-11-24T14:56:42.276Z,14.10
2022-11-24T14:59:29.849Z,11.73
2022-11-24T15:02:17.519Z,10.06
2022-11-24T15:05:05.506Z,9.50
2022-11-24T15:07:53.457Z,9.42
2022-11-24T15:10:41.075Z,8.92
2022-11-24T15:13:28.642Z,8.73
2022-11-24T15:16:16.298Z,8.55
2022-11-24T15:19:03.898Z,8.51
2022-11-24T15:21:51.473Z,8.33
2022-11-24T15:24:39.042Z,8.82
2022-11-24T15:27:26.603Z,9.25
2022-11-24T15:30:14.187Z,9.83
2022-11-24T15:33:01.748Z,10.42
2022-11-24T15:35:49.323Z,10.76
2022-11-24T15:38:36.892Z,10.23
2022-11-24T15:41:24.448Z,10.24
2022-11-24T15:44:11.995Z,8.97
2022-11-24T15:46:59.610Z,8.11
2022-11-24T15:49:47.246Z,7.77
2022-11-24T15:52:34.838Z,7.80
2022-11-24T15:55:22.410Z,7.99
2022-11-24T15:58:09.972Z,7.14
2022-11-24T16:00:57.621Z,6.77
2022-11-24T16:03:47.408Z,6.39
2022-11-24T16:06:35.990Z,6.30
2022-11-24T16:09:23.526Z,6.63
2022-11-24T16:12:11.103Z,6.63
2022-11-24T16:14:58.750Z,6.68
2022-11-24T16:17:46.351Z,6.62
2022-11-24T16:20:33.909Z,6.72
2022-11-24T16:23:21.470Z,6.71
2022-11-24T16:26:09.014Z,6.50
2022-11-24T16:28:56.598Z,6.07
2022-11-24T16:31:44.269Z,5.85
2022-11-24T16:34:32.078Z,5.94
2022-11-24T16:37:19.744Z,6.14
2022-11-24T16:40:07.314Z,6.33
2022-11-24T16:42:54.859Z,6.74
2022-11-24T16:45:45.484Z,6.66
2022-11-24T16:48:33.271Z,6.31
2022-11-24T16:51:20.839Z,6.28
2022-11-24T16:54:08.391Z,5.80
2022-11-24T16:56:55.983Z,5.72
2022-11-24T16:59:43.563Z,5.40
2022-11-24T17:02:31.249Z,5.42
2022-11-24T17:05:18.851Z,5.59
2022-11-24T17:08:06.436Z,5.72
2022-11-24T17:10:53.979Z,5.92
2022-11-24T17:13:41.585Z,5.82
2022-11-24T17:16:29.181Z,5.98
2022-11-24T17:19:16.828Z,6.17
2022-11-24T17:22:04.393Z,5.96
2022-11-24T17:24:51.958Z,5.86
2022-11-24T17:27:39.511Z,5.92
2022-11-24T17:30:27.196Z,6.05
2022-11-24T17:33:14.734Z,6.00
2022-11-24T17:36:02.314Z,5.80
2022-11-24T17:38:49.872Z,5.56
2022-11-24T17:41:37.482Z,5.28
2022-11-24T17:44:25.074Z,5.30
2022-11-24T17:47:12.645Z,5.50
2022-11-24T17:50:00.187Z,5.80
2022-11-24T17:52:47.753Z,5.83
2022-11-24T17:55:35.301Z,5.97
2022-11-24T17:58:22.870Z,6.17
2022-11-24T18:01:10.550Z,6.25
2022-11-24T18:03:58.229Z,6.51
2022-11-24T18:06:45.818Z,7.02
2022-11-24T18:09:33.360Z,7.00
2022-11-24T18:12:20.955Z,6.71
2022-11-24T18:15:08.514Z,6.60
2022-11-24T18:17:56.073Z,6.60
2022-11-24T18:20:43.636Z,6.38
2022-11-24T18:23:31.235Z,6.34
2022-11-24T18:26:18.812Z,6.58
2022-11-24T18:29:06.390Z,6.57
2022-11-24T18:31:56.043Z,6.28
2022-11-24T18:34:43.695Z,6.17
2022-11-24T18:37:31.243Z,6.23
2022-11-24T18:40:18.809Z,5.89
2022-11-24T18:43:06.363Z,5.32
2022-11-24T18:45:53.977Z,5.44
2022-11-24T18:48:41.652Z,6.04
2022-11-24T18:51:29.281Z,6.06
2022-11-24T18:54:16.865Z,5.85
2022-11-24T18:57:04.425Z,6.00
2022-11-24T18:59:52.007Z,6.01
2022-11-24T19:02:39.642Z,6.00
2022-11-24T19:05:27.313Z,6.67
2022-11-24T19:08:14.927Z,7.06
2022-11-24T19:11:02.483Z,8.01
2022-11-24T19:13:50.065Z,8.47
2022-11-24T19:16:37.655Z,8.84
2022-11-24T19:19:25.330Z,9.13
2022-11-24T19:22:12.917Z,8.96
2022-11-24T19:25:00.504Z,9.09
2022-11-24T19:27:48.071Z,8.97
2022-11-24T19:30:35.653Z,9.14
2022-11-24T19:33:23.229Z,9.12
2022-11-24T19:36:11.876Z,8.88
2022-11-24T19:38:59.437Z,9.14
2022-11-24T19:41:47.028Z,9.49
2022-11-24T19:44:34.759Z,9.81
2022-11-24T19:47:24.502Z,9.91
2022-11-24T19:50:12.047Z,9.61
2022-11-24T19:52:59.650Z,9.60
2022-11-24T19:55:47.225Z,8.32
2022-11-24T19:58:34.805Z,7.78
2022-11-24T20:01:22.430Z,7.90
2022-11-24T20:04:10.106Z,7.97
2022-11-24T20:06:57.676Z,8.17
2022-11-24T20:09:45.248Z,8.51
2022-11-24T20:12:32.811Z,9.04
2022-11-24T20:15:20.380Z,9.43
2022-11-24T20:18:07.973Z,9.34
2022-11-24T20:20:55.601Z,9.08
2022-11-24T20:23:43.160Z,9.17
2022-11-24T20:26:30.744Z,8.95
2022-11-24T20:29:18.298Z,9.18
2022-11-24T20:32:05.944Z,9.48
2022-11-24T20:34:53.539Z,9.10
2022-11-24T20:37:41.109Z,9.31
2022-11-24T20:40:28.673Z,9.61
2022-11-24T20:43:16.246Z,9.08
2022-11-24T20:46:03.919Z,8.70
2022-11-24T20:48:51.587Z,9.05
2022-11-24T20:51:39.178Z,9.36
2022-11-24T20:54:26.769Z,9.67
2022-11-24T20:57:14.382Z,9.89
2022-11-24T21:00:02.351Z,10.18
2022-11-24T21:02:50.034Z,10.35
2022-11-24T21:05:37.637Z,10.32
2022-11-24T21:08:25.222Z,10.35
2022-11-24T21:11:12.802Z,10.55
2022-11-24T21:14:00.369Z,10.75
2022-11-24T21:16:47.982Z,11.09
2022-11-24T21:19:35.640Z,10.92
2022-11-24T21:22:23.201Z,10.86
2022-11-24T21:25:10.796Z,9.81
2022-11-24T21:27:58.375Z,8.63
2022-11-24T21:30:45.939Z,8.00
2022-11-24T21:33:33.510Z,7.20
2022-11-24T21:36:21.066Z,7.57
2022-11-24T21:39:08.655Z,7.43
2022-11-24T21:41:56.273Z,8.00
2022-11-24T21:44:43.829Z,8.85
2022-11-24T21:47:31.445Z,8.78
2022-11-24T21:50:19.026Z,9.33
2022-11-24T21:53:06.591Z,8.29
2022-11-24T21:55:54.214Z,7.62
2022-11-24T21:58:41.793Z,7.12
2022-11-24T22:01:29.397Z,7.37
2022-11-24T22:04:17.090Z,8.14
2022-11-24T22:07:04.630Z,7.83
2022-11-24T22:09:52.212Z,8.20
2022-11-24T22:12:39.794Z,8.68
2022-11-24T22:15:27.424Z,9.02
2022-11-24T22:18:14.993Z,8.89
2022-11-24T22:21:02.570Z,8.90
2022-11-24T22:23:50.134Z,9.38
2022-11-24T22:26:37.716Z,9.63
2022-11-24T22:29:25.292Z,9.71
2022-11-24T22:32:12.834Z,10.06
2022-11-24T22:35:00.436Z,10.22
2022-11-24T22:37:47.993Z,10.03
2022-11-24T22:40:35.570Z,9.79
2022-11-24T22:43:23.333Z,9.67
2022-11-24T22:46:11.006Z,9.59
2022-11-24T22:48:58.755Z,9.75
2022-11-24T22:51:46.442Z,10.09
2022-11-24T22:54:34.304Z,10.38
2022-11-24T22:57:22.085Z,10.52
2022-11-24T23:00:09.631Z,10.26
2022-11-24T23:02:57.239Z,9.32
2022-11-24T23:05:44.901Z,8.65
2022-11-24T23:08:32.471Z,7.87
2022-11-24T23:11:20.020Z,8.62
2022-11-24T23:14:07.594Z,9.18
2022-11-24T23:16:55.207Z,9.48
2022-11-24T23:19:42.810Z,9.47
2022-11-24T23:22:30.384Z,9.27
2022-11-24T23:25:17.972Z,9.36
2022-11-24T23:28:05.545Z,8.87
2022-11-24T23:30:53.141Z,9.15
2022-11-24T23:33:40.728Z,9.38
2022-11-24T23:36:28.319Z,8.69
2022-11-24T23:39:15.865Z,8.09
2022-11-24T23:42:03.466Z,8.28
2022-11-24T23:44:51.049Z,8.05
2022-11-24T23:47:38.641Z,8.51
2022-11-24T23:50:26.202Z,7.41
2022-11-24T23:53:13.763Z,7.03
2022-11-24T23:56:01.357Z,6.72
2022-11-24T23:58:48.944Z,6.49
